createdAt,value
2022-08-21T00:00:29.410Z,6.30
2022-08-21T00:03:02.347Z,7.60
2022-08-21T00:05:32.205Z,8.88
2022-08-21T00:07:59.823Z,8.52
2022-08-21T00:10:27.228Z,5.28
2022-08-21T00:12:54.946Z,8.02
2022-08-21T00:15:28.395Z,7.28
2022-08-21T00:17:57.081Z,8.13
2022-08-21T00:20:25.832Z,14.50
2022-08-21T00:22:54.224Z,8.55
2022-08-21T00:25:24.248Z,8.57
2022-08-21T00:27:54.421Z,9.00
2022-08-21T00:30:23.721Z,7.00
2022-08-21T00:32:52.620Z,7.60
2022-08-21T00:35:22.804Z,6.85
2022-08-21T00:37:50.358Z,8.33
2022-08-21T00:40:21.768Z,6.85
2022-08-21T00:42:53.288Z,8.60
2022-08-21T00:45:23.440Z,7.00
2022-08-21T00:47:52.830Z,8.48
2022-08-21T00:50:22.292Z,7.20
2022-08-21T00:52:52.793Z,10.43
2022-08-21T00:55:23.545Z,6.05
2022-08-21T00:57:58.009Z,7.22
2022-08-21T01:00:34.120Z,6.68
2022-08-21T01:03:07.466Z,7.88
2022-08-21T01:05:37.789Z,7.22
2022-08-21T01:08:07.292Z,7.35
2022-08-21T01:10:36.300Z,8.60
2022-08-21T01:13:07.938Z,5.75
2022-08-21T01:15:39.201Z,6.97
2022-08-21T01:18:10.605Z,6.47
2022-08-21T01:20:40.157Z,6.80
2022-08-21T01:23:07.737Z,7.38
2022-08-21T01:25:35.585Z,8.52
2022-08-21T01:28:10.822Z,6.25
2022-08-21T01:30:39.646Z,9.40
2022-08-21T01:33:07.236Z,9.10
2022-08-21T01:35:35.340Z,6.45
2022-08-21T01:38:02.923Z,6.88
2022-08-21T01:40:30.346Z,6.65
2022-08-21T01:42:58.133Z,7.50
2022-08-21T01:45:25.751Z,7.60
2022-08-21T01:47:53.311Z,6.57
2022-08-21T01:50:21.985Z,7.85
2022-08-21T01:52:50.593Z,9.55
2022-08-21T01:55:19.283Z,8.05
2022-08-21T01:57:47.384Z,7.13
2022-08-21T02:00:17.868Z,8.70
2022-08-21T02:02:45.426Z,6.35
2022-08-21T02:05:14.007Z,5.93
2022-08-21T02:07:49.862Z,8.18
2022-08-21T02:10:21.158Z,6.78
2022-08-21T02:12:48.615Z,5.63
2022-08-21T02:15:16.721Z,5.93
2022-08-21T02:17:50.515Z,6.95
2022-08-21T02:20:22.082Z,6.60
2022-08-21T02:22:50.687Z,5.85
2022-08-21T02:25:19.581Z,4.95
2022-08-21T02:27:48.901Z,5.35
2022-08-21T02:30:26.501Z,5.35
2022-08-21T02:32:53.940Z,7.40
2022-08-21T02:35:22.217Z,9.93
2022-08-21T02:37:52.891Z,9.02
2022-08-21T02:40:23.537Z,7.25
2022-08-21T02:42:50.990Z,6.85
2022-08-21T02:45:19.541Z,7.88
2022-08-21T02:47:52.785Z,4.95
2022-08-21T02:50:24.386Z,8.80
2022-08-21T02:52:55.077Z,10.15
2022-08-21T02:55:27.367Z,6.05
2022-08-21T02:57:56.570Z,7.88
2022-08-21T03:00:26.390Z,7.93
2022-08-21T03:02:54.642Z,7.25
2022-08-21T03:05:22.231Z,7.60
2022-08-21T03:07:50.433Z,9.52
2022-08-21T03:10:18.199Z,5.80
2022-08-21T03:12:45.692Z,8.05
2022-08-21T03:15:15.878Z,5.82
2022-08-21T03:17:43.346Z,8.53
2022-08-21T03:20:11.639Z,8.50
2022-08-21T03:22:39.095Z,8.52
2022-08-21T03:25:07.234Z,8.07
2022-08-21T03:27:38.558Z,6.35
2022-08-21T03:30:10.780Z,6.95
2022-08-21T03:32:38.449Z,5.53
2022-08-21T03:35:06.492Z,5.32
2022-08-21T03:37:34.020Z,6.82
2022-08-21T03:40:01.667Z,7.22
2022-08-21T03:42:29.297Z,14.05
2022-08-21T03:44:56.829Z,6.18
2022-08-21T03:47:24.517Z,8.25
2022-08-21T03:49:52.307Z,9.13
2022-08-21T03:52:20.134Z,7.63
2022-08-21T03:54:47.587Z,6.45
2022-08-21T03:57:15.489Z,6.32
2022-08-21T03:59:44.402Z,7.18
2022-08-21T04:02:14.365Z,6.20
2022-08-21T04:04:41.815Z,7.75
2022-08-21T04:07:09.276Z,7.57
2022-08-21T04:09:36.895Z,8.85
2022-08-21T04:12:04.793Z,9.65
2022-08-21T04:14:32.323Z,7.82
2022-08-21T04:16:59.840Z,7.35
2022-08-21T04:19:27.697Z,7.78
2022-08-21T04:21:55.148Z,9.88
2022-08-21T04:24:22.640Z,6.22
2022-08-21T04:26:50.187Z,7.38
2022-08-21T04:29:17.707Z,7.38
2022-08-21T04:31:45.207Z,9.60
2022-08-21T04:34:12.847Z,9.73
2022-08-21T04:36:40.273Z,7.32
2022-08-21T04:39:07.743Z,8.23
2022-08-21T04:41:38.021Z,14.45
2022-08-21T04:44:05.756Z,13.38
2022-08-21T04:46:33.247Z,10.63
2022-08-21T04:49:00.676Z,10.85
2022-08-21T04:51:35.591Z,9.35
2022-08-21T04:54:16.776Z,8.10
2022-08-21T04:56:50.372Z,7.93
2022-08-21T04:59:23.286Z,10.48
2022-08-21T05:01:52.278Z,8.82
2022-08-21T05:04:24.871Z,8.90
2022-08-21T05:06:55.172Z,11.13
2022-08-21T05:09:24.704Z,9.57
2022-08-21T05:11:53.832Z,8.60
2022-08-21T05:14:21.354Z,8.40
2022-08-21T05:16:49.380Z,7.13
2022-08-21T05:19:16.926Z,9.73
2022-08-21T05:21:45.983Z,8.20
2022-08-21T05:24:13.548Z,12.60
2022-08-21T05:26:45.939Z,7.40
2022-08-21T05:29:15.434Z,9.85
2022-08-21T05:31:44.609Z,9.85
2022-08-21T05:34:12.737Z,8.35
2022-08-21T05:36:43.960Z,9.07
2022-08-21T05:39:11.744Z,9.32
2022-08-21T05:41:39.576Z,10.60
2022-08-21T05:44:10.780Z,12.73
2022-08-21T05:46:39.290Z,12.98
2022-08-21T05:49:06.954Z,10.30
2022-08-21T05:51:34.420Z,11.38
2022-08-21T05:54:01.926Z,12.00
2022-08-21T05:56:29.433Z,10.32
2022-08-21T05:58:56.985Z,10.50
2022-08-21T06:01:24.828Z,8.65
2022-08-21T06:03:52.521Z,8.88
2022-08-21T06:06:24.178Z,9.68
2022-08-21T06:08:51.685Z,11.60
2022-08-21T06:11:20.821Z,10.32
2022-08-21T06:13:48.355Z,12.85
2022-08-21T06:16:18.319Z,14.00
2022-08-21T06:18:46.753Z,10.35
2022-08-21T06:21:14.713Z,10.82
2022-08-21T06:23:43.382Z,11.18
2022-08-21T06:26:12.700Z,8.63
2022-08-21T06:28:41.070Z,13.65
2022-08-21T06:31:18.088Z,8.85
2022-08-21T06:33:46.094Z,8.13
2022-08-21T06:36:13.710Z,6.53
2022-08-21T06:38:41.722Z,6.70
2022-08-21T06:41:18.296Z,7.60
2022-08-21T06:43:51.916Z,6.53
2022-08-21T06:46:19.432Z,8.90
2022-08-21T06:48:46.849Z,7.00
2022-08-21T06:51:14.268Z,10.45
2022-08-21T06:53:41.727Z,10.77
2022-08-21T06:56:09.298Z,8.05
2022-08-21T06:58:36.977Z,4.90
2022-08-21T07:01:05.703Z,5.15
2022-08-21T07:03:39.735Z,6.65
2022-08-21T07:06:09.164Z,4.03
2022-08-21T07:08:37.779Z,5.20
2022-08-21T07:11:12.098Z,6.43
2022-08-21T07:13:40.014Z,6.03
2022-08-21T07:16:08.216Z,6.07
2022-08-21T07:18:37.314Z,4.20
2022-08-21T07:21:08.464Z,7.45
2022-08-21T07:23:41.089Z,5.15
2022-08-21T07:26:10.063Z,4.80
2022-08-21T07:28:37.722Z,4.63
2022-08-21T07:31:05.874Z,4.95
2022-08-21T07:33:35.720Z,5.65
2022-08-21T07:36:04.360Z,7.03
2022-08-21T07:38:31.982Z,4.32
2022-08-21T07:41:02.500Z,4.80
2022-08-21T07:43:30.671Z,4.28
2022-08-21T07:45:58.530Z,5.45
2022-08-21T07:48:26.110Z,6.07
2022-08-21T07:50:53.622Z,4.95
2022-08-21T07:53:21.091Z,6.07
2022-08-21T07:55:48.574Z,5.22
2022-08-21T07:58:16.027Z,5.22
2022-08-21T08:00:43.587Z,6.47
2022-08-21T08:03:11.132Z,4.90
2022-08-21T08:05:40.285Z,6.53
2022-08-21T08:08:07.879Z,5.95
2022-08-21T08:10:36.142Z,3.90
2022-08-21T08:13:04.059Z,4.57
2022-08-21T08:15:36.973Z,6.05
2022-08-21T08:18:05.376Z,5.53
2022-08-21T08:20:33.686Z,7.82
2022-08-21T08:23:01.433Z,7.20
2022-08-21T08:25:32.770Z,5.40
2022-08-21T08:28:06.774Z,5.00
2022-08-21T08:30:47.345Z,4.10
2022-08-21T08:33:15.941Z,6.60
2022-08-21T08:35:47.031Z,5.03
2022-08-21T08:38:21.528Z,5.95
2022-08-21T08:41:13.999Z,5.60
2022-08-21T08:43:50.251Z,7.25
2022-08-21T08:46:21.296Z,5.53
2022-08-21T08:49:03.896Z,11.05
2022-08-21T08:51:48.581Z,7.68
2022-08-21T08:54:27.188Z,6.78
2022-08-21T08:56:56.899Z,4.80
2022-08-21T08:59:28.964Z,9.48
2022-08-21T09:01:57.985Z,5.07
2022-08-21T09:04:29.930Z,5.80
2022-08-21T09:07:08.727Z,7.18
2022-08-21T09:10:09.554Z,5.55
2022-08-21T09:13:11.998Z,5.55
2022-08-21T09:15:58.982Z,4.53
2022-08-21T09:19:03.585Z,5.20
2022-08-21T09:21:42.171Z,5.53
2022-08-21T09:24:15.493Z,5.07
2022-08-21T09:26:55.539Z,5.22
2022-08-21T09:29:26.255Z,5.37
2022-08-21T09:34:30.740Z,5.15
2022-08-21T09:36:58.511Z,5.88
2022-08-21T09:39:32.844Z,5.38
2022-08-21T09:42:10.778Z,7.65
2022-08-21T09:44:44.377Z,10.10
2022-08-21T09:47:16.143Z,4.22
2022-08-21T09:49:44.732Z,6.45
2022-08-21T09:52:25.737Z,10.68
2022-08-21T09:57:42.638Z,8.07
2022-08-21T10:00:19.961Z,5.57
2022-08-21T10:02:47.584Z,8.43
2022-08-21T10:05:24.036Z,8.80
2022-08-21T10:07:52.155Z,3.90
2022-08-21T10:10:26.968Z,4.88
2022-08-21T10:13:00.758Z,10.32
2022-08-21T10:15:53.302Z,9.02
2022-08-21T10:18:23.735Z,5.47
2022-08-21T10:21:12.796Z,4.50
2022-08-21T10:24:08.230Z,4.72
2022-08-21T10:26:47.043Z,5.65
2022-08-21T10:30:07.873Z,14.48
2022-08-21T10:32:50.589Z,5.28
2022-08-21T10:35:44.836Z,7.60
2022-08-21T10:38:39.313Z,5.57
2022-08-21T10:41:33.393Z,8.65
2022-08-21T10:44:13.691Z,6.50
2022-08-21T10:47:02.757Z,4.25
2022-08-21T10:50:11.304Z,5.10
2022-08-21T10:52:53.245Z,4.93
2022-08-21T10:55:52.223Z,7.55
2022-08-21T10:58:22.678Z,3.90
2022-08-21T11:00:54.751Z,2.38
2022-08-21T11:03:42.039Z,4.15
2022-08-21T11:06:28.292Z,4.85
2022-08-21T11:09:00.800Z,3.75
2022-08-21T11:11:45.095Z,4.70
2022-08-21T11:14:35.289Z,5.60
2022-08-21T11:17:12.114Z,3.33
2022-08-21T11:19:49.074Z,5.55
2022-08-21T11:22:36.969Z,7.05
2022-08-21T11:25:18.524Z,8.35
2022-08-21T11:27:54.301Z,6.03
2022-08-21T11:30:25.159Z,6.10
2022-08-21T11:35:39.914Z,6.65
2022-08-21T11:38:28.530Z,9.50
2022-08-21T11:41:14.088Z,4.65
2022-08-21T11:43:47.929Z,7.93
2022-08-21T11:46:50.729Z,7.45
2022-08-21T11:49:33.158Z,4.70
2022-08-21T11:52:18.962Z,9.48
2022-08-21T11:55:16.605Z,3.42
2022-08-21T11:58:03.563Z,58.47
2022-08-21T12:00:37.333Z,7.13
2022-08-21T12:03:35.665Z,5.95
2022-08-21T12:06:24.308Z,5.38
2022-08-21T12:09:02.164Z,5.20
2022-08-21T12:11:30.856Z,9.43
2022-08-21T12:14:07.744Z,4.97
2022-08-21T12:16:38.642Z,4.20
2022-08-21T12:19:31.503Z,2.53
2022-08-21T12:21:59.119Z,3.28
2022-08-21T12:24:29.359Z,4.38
2022-08-21T12:26:58.643Z,5.00
2022-08-21T12:29:34.086Z,8.40
2022-08-21T12:32:23.586Z,6.35
2022-08-21T12:35:25.198Z,6.43
2022-08-21T12:38:18.858Z,9.20
2022-08-21T12:41:04.593Z,4.55
2022-08-21T12:43:36.930Z,6.32
2022-08-21T12:46:05.603Z,7.07
2022-08-21T12:49:00.025Z,9.20
2022-08-21T12:51:33.835Z,14.25
2022-08-21T12:54:01.692Z,9.20
2022-08-21T12:56:34.026Z,10.68
2022-08-21T12:59:12.228Z,11.20
2022-08-21T13:01:49.128Z,9.77
2022-08-21T13:04:32.980Z,8.48
2022-08-21T13:07:01.278Z,8.60
2022-08-21T13:09:32.278Z,14.60
2022-08-21T13:12:00.619Z,6.97
2022-08-21T13:14:45.950Z,11.05
2022-08-21T13:17:25.771Z,9.88
2022-08-21T13:20:10.157Z,11.70
2022-08-21T13:22:44.772Z,13.00
2022-08-21T13:25:14.884Z,15.07
2022-08-21T13:27:43.381Z,10.25
2022-08-21T13:30:21.287Z,13.10
2022-08-21T13:32:56.469Z,15.25
2022-08-21T13:35:31.730Z,9.75
2022-08-21T13:38:01.072Z,11.77
2022-08-21T13:40:41.217Z,7.88
2022-08-21T13:43:15.789Z,9.88
2022-08-21T13:45:52.303Z,10.07
2022-08-21T13:48:21.695Z,10.95
2022-08-21T13:50:49.561Z,11.15
2022-08-21T13:53:46.941Z,10.32
2022-08-21T13:56:32.648Z,11.63
2022-08-21T13:59:02.101Z,14.00
2022-08-21T14:01:33.652Z,32.28
2022-08-21T14:04:07.193Z,15.10
2022-08-21T14:06:37.984Z,14.80
2022-08-21T14:09:13.151Z,12.43
2022-08-21T14:11:41.642Z,19.67
2022-08-21T14:14:26.007Z,13.52
2022-08-21T14:16:59.743Z,12.85
2022-08-21T14:19:40.365Z,17.63
2022-08-21T14:25:02.543Z,22.88
2022-08-21T14:27:32.324Z,18.13
2022-08-21T14:30:11.057Z,17.10
2022-08-21T14:32:44.943Z,12.90
2022-08-21T14:35:13.776Z,18.85
2022-08-21T14:37:46.589Z,15.57
2022-08-21T14:40:18.537Z,19.85
2022-08-21T14:42:47.305Z,19.83
2022-08-21T14:45:21.247Z,32.05
2022-08-21T14:47:52.634Z,17.02
2022-08-21T14:50:20.606Z,14.80
2022-08-21T14:52:48.149Z,14.10
2022-08-21T14:55:18.985Z,25.90
2022-08-21T14:57:49.051Z,14.83
2022-08-21T15:00:22.447Z,16.77
2022-08-21T15:02:51.209Z,13.90
2022-08-21T15:05:24.142Z,20.63
2022-08-21T15:08:00.682Z,17.20
2022-08-21T15:10:31.504Z,14.70
2022-08-21T15:12:59.250Z,13.35
2022-08-21T15:15:27.252Z,16.17
2022-08-21T15:17:54.695Z,17.60
2022-08-21T15:20:41.940Z,16.65
2022-08-21T15:23:14.726Z,15.85
2022-08-21T15:25:45.290Z,19.67
2022-08-21T15:28:14.056Z,18.63
2022-08-21T15:30:42.950Z,20.23
2022-08-21T15:33:10.703Z,12.60
2022-08-21T15:35:41.141Z,17.05
2022-08-21T15:38:11.259Z,18.23
2022-08-21T15:40:39.967Z,13.57
2022-08-21T15:43:31.173Z,13.27
2022-08-21T15:46:02.647Z,17.08
2022-08-21T15:48:30.283Z,17.02
2022-08-21T15:50:57.694Z,17.88
2022-08-21T15:53:25.121Z,12.73
2022-08-21T15:55:52.712Z,16.60
2022-08-21T15:58:21.822Z,16.52
2022-08-21T16:00:49.274Z,13.35
2022-08-21T16:03:22.563Z,14.27
2022-08-21T16:05:53.358Z,12.27
2022-08-21T16:08:21.849Z,17.25
2022-08-21T16:10:49.789Z,22.55
2022-08-21T16:13:29.950Z,13.07
2022-08-21T16:15:57.674Z,12.32
2022-08-21T16:18:27.965Z,15.68
2022-08-21T16:20:55.397Z,16.80
2022-08-21T16:23:22.893Z,15.70
2022-08-21T16:25:51.369Z,12.00
2022-08-21T16:28:21.865Z,13.00
2022-08-21T16:30:50.904Z,13.55
2022-08-21T16:33:32.524Z,16.85
2022-08-21T16:36:04.302Z,15.63
2022-08-21T16:38:32.827Z,14.80
2022-08-21T16:41:07.871Z,17.00
2022-08-21T16:43:36.134Z,13.55
2022-08-21T16:46:03.611Z,33.45
2022-08-21T16:48:31.180Z,12.75
2022-08-21T16:50:59.246Z,18.42
2022-08-21T16:53:27.254Z,20.30
2022-08-21T16:55:55.048Z,24.60
2022-08-21T16:58:32.822Z,15.90
2022-08-21T17:01:04.165Z,14.32
2022-08-21T17:03:39.618Z,15.57
2022-08-21T17:06:09.500Z,15.15
2022-08-21T17:08:37.874Z,19.55
2022-08-21T17:11:08.335Z,16.25
2022-08-21T17:13:35.874Z,20.80
2022-08-21T17:16:03.991Z,15.52
2022-08-21T17:18:31.474Z,16.52
2022-08-21T17:20:58.939Z,26.65
2022-08-21T17:23:26.398Z,18.50
2022-08-21T17:25:55.109Z,20.85
2022-08-21T17:28:26.282Z,17.25
2022-08-21T17:30:58.394Z,19.27
2022-08-21T17:33:29.213Z,13.10
2022-08-21T17:35:56.781Z,17.38
2022-08-21T17:38:24.240Z,18.83
2022-08-21T17:40:55.721Z,35.33
2022-08-21T17:43:24.660Z,19.60
2022-08-21T17:45:55.182Z,23.25
2022-08-21T17:48:22.903Z,18.85
2022-08-21T17:50:53.378Z,19.08
2022-08-21T17:53:21.035Z,18.13
2022-08-21T17:55:49.381Z,23.20
2022-08-21T17:58:17.128Z,21.67
2022-08-21T18:00:45.714Z,18.73
2022-08-21T18:03:18.601Z,22.48
2022-08-21T18:05:48.641Z,30.35
2022-08-21T18:08:16.409Z,18.17
2022-08-21T18:10:47.314Z,19.95
2022-08-21T18:15:46.456Z,17.58
2022-08-21T18:18:14.460Z,21.08
2022-08-21T18:20:44.924Z,19.55
2022-08-21T18:23:12.420Z,21.98
2022-08-21T18:25:42.581Z,23.35
2022-08-21T18:28:13.521Z,20.93
2022-08-21T18:33:11.091Z,22.02
2022-08-21T18:35:38.578Z,20.45
2022-08-21T18:38:06.151Z,22.42
2022-08-21T18:40:35.784Z,20.27
2022-08-21T18:43:06.765Z,19.77
2022-08-21T18:45:37.146Z,20.95
2022-08-21T18:48:08.883Z,23.45
2022-08-21T18:50:38.924Z,20.70
2022-08-21T18:55:57.157Z,23.73
2022-08-21T18:58:33.128Z,22.77
2022-08-21T19:01:01.090Z,24.00
2022-08-21T19:03:30.181Z,20.83
2022-08-21T19:05:59.006Z,20.80
2022-08-21T19:08:29.254Z,20.63
2022-08-21T19:10:58.738Z,25.15
2022-08-21T19:13:28.526Z,26.27
2022-08-21T19:15:56.932Z,25.50
2022-08-21T19:18:28.266Z,25.27
2022-08-21T19:20:57.306Z,29.17
2022-08-21T19:23:29.216Z,25.88
2022-08-21T19:26:01.170Z,27.33
2022-08-21T19:28:37.751Z,24.63
2022-08-21T19:31:19.641Z,25.23
2022-08-21T19:34:25.837Z,27.35
2022-08-21T19:36:56.708Z,24.40
2022-08-21T19:39:24.737Z,23.05
2022-08-21T19:41:56.635Z,26.63
2022-08-21T19:44:28.430Z,25.38
2022-08-21T19:46:58.499Z,24.00
2022-08-21T19:49:33.360Z,22.50
2022-08-21T19:52:02.344Z,20.48
2022-08-21T19:54:40.979Z,20.67
2022-08-21T19:57:10.913Z,22.30
2022-08-21T19:59:40.661Z,25.40
2022-08-21T20:02:09.649Z,22.20
2022-08-21T20:04:37.806Z,20.73
2022-08-21T20:09:54.234Z,21.13
2022-08-21T20:12:21.944Z,24.95
2022-08-21T20:14:50.355Z,27.40
2022-08-21T20:17:19.508Z,23.38
2022-08-21T20:19:53.947Z,18.73
2022-08-21T20:22:23.937Z,25.42
2022-08-21T20:24:51.919Z,22.35
2022-08-21T20:27:23.743Z,25.13
2022-08-21T20:29:51.536Z,25.05
2022-08-21T20:32:19.315Z,22.30
2022-08-21T20:34:52.015Z,20.63
2022-08-21T20:37:22.236Z,21.88
2022-08-21T20:40:11.011Z,16.58
2022-08-21T20:42:41.132Z,19.13
2022-08-21T20:45:18.478Z,18.52
2022-08-21T20:48:49.652Z,18.73
2022-08-21T20:51:42.720Z,17.52
2022-08-21T20:54:21.464Z,15.10
2022-08-21T20:56:51.782Z,20.80
2022-08-21T20:59:33.649Z,15.85
2022-08-21T21:02:16.618Z,15.80
2022-08-21T21:04:54.961Z,18.33
2022-08-21T21:07:30.471Z,16.05
2022-08-21T21:10:01.966Z,15.20
2022-08-21T21:15:32.419Z,14.32
2022-08-21T21:18:13.162Z,17.25
2022-08-21T21:20:53.942Z,16.00
2022-08-21T21:23:27.160Z,16.25
2022-08-21T21:26:09.560Z,15.40
2022-08-21T21:29:10.573Z,11.48
2022-08-21T21:31:38.317Z,13.55
2022-08-21T21:34:06.189Z,10.50
2022-08-21T21:36:56.178Z,11.90
2022-08-21T21:39:40.226Z,10.07
2022-08-21T21:42:41.918Z,10.77
2022-08-21T21:45:25.922Z,11.73
2022-08-21T21:48:05.365Z,12.82
2022-08-21T21:51:04.133Z,11.85
2022-08-21T21:53:53.552Z,11.60
2022-08-21T21:56:40.516Z,12.88
2022-08-21T21:59:17.022Z,10.70
2022-08-21T22:02:32.446Z,14.57
2022-08-21T22:05:08.157Z,12.10
2022-08-21T22:07:35.575Z,10.98
2022-08-21T22:10:30.344Z,15.27
2022-08-21T22:13:26.282Z,10.07
2022-08-21T22:15:55.679Z,14.43
2022-08-21T22:18:35.810Z,11.43
2022-08-21T22:21:11.960Z,10.95
2022-08-21T22:23:49.407Z,13.35
2022-08-21T22:26:21.419Z,10.75
2022-08-21T22:28:51.976Z,18.35
2022-08-21T22:31:26.941Z,10.93
2022-08-21T22:34:04.331Z,14.38
2022-08-21T22:36:38.048Z,18.00
2022-08-21T22:39:16.151Z,11.63
2022-08-21T22:41:47.575Z,11.98
2022-08-21T22:50:34.983Z,12.05
2022-08-21T22:53:07.144Z,17.30
2022-08-21T22:55:46.058Z,12.20
2022-08-21T22:58:21.199Z,13.32
2022-08-21T23:01:03.079Z,15.57
2022-08-21T23:03:44.279Z,16.33
2022-08-21T23:06:31.467Z,14.55
2022-08-21T23:09:00.445Z,12.35
2022-08-21T23:11:40.731Z,15.85
2022-08-21T23:14:14.108Z,17.52
2022-08-21T23:16:50.654Z,14.05
2022-08-21T23:19:48.743Z,17.25
2022-08-21T23:22:36.576Z,15.13
2022-08-21T23:25:29.626Z,14.70
2022-08-21T23:28:07.623Z,18.30
2022-08-21T23:30:52.854Z,17.35
2022-08-21T23:33:38.670Z,20.40
2022-08-21T23:36:43.782Z,16.27
2022-08-21T23:39:26.451Z,14.23
2022-08-21T23:42:12.811Z,16.02
2022-08-21T23:45:14.215Z,16.60
2022-08-21T23:48:07.394Z,14.18
2022-08-21T23:50:45.196Z,19.80
2022-08-21T23:53:28.274Z,15.27
2022-08-21T23:56:11.523Z,14.88
2022-08-21T23:58:46.191Z,12.82
